Glasgow, United Kingdom

3:05 AM BST on August 31, 2015 (GMT +0100)
Glasgow | | Change Station
CLOSE
Current Station
Airport
Location: Glasgow,
Elevation: 26 ft
Nearby Weather Stations

Elev 26 ft 55.87 °N, 4.43 °W | Updated 15 minutes ago

Clear
Clear
45 °F
Feels Like 42 °F
N
5
Wind Variable Wind from WSW

Today
High -- | Low -- °F
--% Chance of Precip.
Yesterday
High -- | Low -- °F
Precip. -- in
6:19 AM 8:15 PM
Full, 97% visible
Pressure 30.06 in
Visibility 6.2 miles
Clouds
Windchill 42 °F
Dew Point 45 °F
Humidity 100%
Rainfall 0.00 in
Snow Depth Not available.
UV Not available.
Pollen Not available.
Air Quality Not available.
Flu Activity Not available.
METAR EGPF 310150Z AUTO 25004KT 9999 NCD 07/07 Q1018
Pressure 30.06 in
Visibility 6.2 miles
Clouds
Windchill 42 °F
Dew Point 45 °F
Humidity 100%
Rainfall 0.00 in
Snow Depth Not available.
UV Not available.
Pollen Not available.
Air Quality Not available.
Flu Activity Not available.
METAR EGPF 310150Z AUTO 25004KT 9999 NCD 07/07 Q1018

10-Day Weather Forecast

×

Almanac

Astronomy

Aug. 31, 2015 Rise Set
Actual Time
Civil Twilight
Nautical Twilight
Astronomical Twilight
Moon
Length of Visible Light
Length of Day
Tomorrow will be .
, % of the Moon is Illuminated

Today's Extremes

Country Highs Country Lows

Community

WunderPhotos

Upload Photos

1,851,155 photos uploaded!

WunderBlogs® & News

Nearby

Air Quality

  Air Quality AQ Index Pollutant
Not available.

Snow Depth

Station Depth Elevation

Earthquake Activity

City Distance Mag. Time & Date
Minimum magnitude displayed is 2.5.

Coastal Water Temperatures

Place Temperature

Stations

Nearby Weather Stations

Station Location Temp. Windchill Dew Point Humidity Wind Precip. Elev Updated Type